sensor_id;sensor_type;location;lat;lon;timestamp;pressure;altitude;pressure_sealevel;temperature;humidity
38912;BME280;28444;48.056;14.408;2023-02-10T00:00:16;99323.06;;;-3.74;71.31
38912;BME280;28444;48.056;14.408;2023-02-10T00:02:43;99324.19;;;-3.75;71.51
38912;BME280;28444;48.056;14.408;2023-02-10T00:05:10;99323.88;;;-3.77;71.16
38912;BME280;28444;48.056;14.408;2023-02-10T00:07:37;99318.47;;;-3.90;71.96
38912;BME280;28444;48.056;14.408;2023-02-10T00:10:04;99323.44;;;-4.04;72.77
38912;BME280;28444;48.056;14.408;2023-02-10T00:12:31;99321.34;;;-3.97;72.94
38912;BME280;28444;48.056;14.408;2023-02-10T00:14:57;99318.94;;;-4.07;72.96
38912;BME280;28444;48.056;14.408;2023-02-10T00:17:24;99319.84;;;-3.98;72.68
38912;BME280;28444;48.056;14.408;2023-02-10T00:19:50;99330.06;;;-4.09;72.61
38912;BME280;28444;48.056;14.408;2023-02-10T00:22:17;99330.72;;;-4.05;72.93
38912;BME280;28444;48.056;14.408;2023-02-10T00:24:44;99335.13;;;-3.98;73.74
38912;BME280;28444;48.056;14.408;2023-02-10T00:27:10;99341.97;;;-3.97;72.50
38912;BME280;28444;48.056;14.408;2023-02-10T00:29:37;99349.75;;;-4.03;72.61
38912;BME280;28444;48.056;14.408;2023-02-10T00:32:04;99354.94;;;-3.96;72.37
38912;BME280;28444;48.056;14.408;2023-02-10T00:34:30;99351.25;;;-4.02;73.04
38912;BME280;28444;48.056;14.408;2023-02-10T00:36:57;99366.28;;;-3.92;72.93
38912;BME280;28444;48.056;14.408;2023-02-10T00:39:23;99372.78;;;-3.93;72.72
38912;BME280;28444;48.056;14.408;2023-02-10T00:41:50;99376.91;;;-4.04;73.01
38912;BME280;28444;48.056;14.408;2023-02-10T00:44:17;99373.13;;;-4.07;72.80
38912;BME280;28444;48.056;14.408;2023-02-10T00:46:43;99384.75;;;-3.97;72.59
38912;BME280;28444;48.056;14.408;2023-02-10T00:49:10;99385.09;;;-3.95;72.29
38912;BME280;28444;48.056;14.408;2023-02-10T00:51:37;99376.72;;;-3.97;71.94
38912;BME280;28444;48.056;14.408;2023-02-10T00:54:04;99374.81;;;-3.97;71.26
38912;BME280;28444;48.056;14.408;2023-02-10T00:56:31;99369.78;;;-4.11;71.17
38912;BME280;28444;48.056;14.408;2023-02-10T00:58:57;99377.91;;;-4.15;72.12
38912;BME280;28444;48.056;14.408;2023-02-10T01:01:24;99380.34;;;-4.20;71.99
38912;BME280;28444;48.056;14.408;2023-02-10T01:03:51;99384.00;;;-4.14;72.17
38912;BME280;28444;48.056;14.408;2023-02-10T01:06:17;99381.50;;;-4.21;72.08
38912;BME280;28444;48.056;14.408;2023-02-10T01:08:44;99382.59;;;-4.19;71.78
38912;BME280;28444;48.056;14.408;2023-02-10T01:11:12;99379.50;;;-4.33;72.50
38912;BME280;28444;48.056;14.408;2023-02-10T01:13:40;99370.97;;;-4.45;73.75
38912;BME280;28444;48.056;14.408;2023-02-10T01:16:11;99361.78;;;-4.60;74.29
38912;BME280;28444;48.056;14.408;2023-02-10T01:18:40;99359.59;;;-4.65;74.29
38912;BME280;28444;48.056;14.408;2023-02-10T01:21:12;99358.19;;;-4.70;75.20
38912;BME280;28444;48.056;14.408;2023-02-10T01:23:39;99351.50;;;-4.78;75.59
38912;BME280;28444;48.056;14.408;2023-02-10T01:26:08;99336.50;;;-4.72;75.82
38912;BME280;28444;48.056;14.408;2023-02-10T01:28:39;99344.66;;;-4.63;75.49
38912;BME280;28444;48.056;14.408;2023-02-10T01:31:11;99348.84;;;-4.62;74.72
38912;BME280;28444;48.056;14.408;2023-02-10T01:33:38;99363.28;;;-4.59;75.07
38912;BME280;28444;48.056;14.408;2023-02-10T01:36:13;99358.44;;;-4.48;74.55
38912;BME280;28444;48.056;14.408;2023-02-10T01:38:41;99362.81;;;-4.38;74.31
38912;BME280;28444;48.056;14.408;2023-02-10T01:41:08;99365.81;;;-4.36;73.75
38912;BME280;28444;48.056;14.408;2023-02-10T01:43:55;99371.16;;;-4.36;74.07
38912;BME280;28444;48.056;14.408;2023-02-10T01:46:22;99360.03;;;-4.34;73.42
38912;BME280;28444;48.056;14.408;2023-02-10T01:48:49;99360.88;;;-4.37;73.59
38912;BME280;28444;48.056;14.408;2023-02-10T01:51:19;99371.06;;;-4.32;74.06
38912;BME280;28444;48.056;14.408;2023-02-10T01:53:51;99370.22;;;-4.29;74.01
38912;BME280;28444;48.056;14.408;2023-02-10T01:56:18;99372.81;;;-4.25;73.13
38912;BME280;28444;48.056;14.408;2023-02-10T01:58:44;99375.56;;;-4.29;72.36
38912;BME280;28444;48.056;14.408;2023-02-10T02:01:11;99379.34;;;-4.43;72.38
38912;BME280;28444;48.056;14.408;2023-02-10T02:03:38;99372.97;;;-4.32;73.04
38912;BME280;28444;48.056;14.408;2023-02-10T02:06:08;99379.00;;;-4.28;71.88
38912;BME280;28444;48.056;14.408;2023-02-10T02:08:36;99376.50;;;-4.19;71.56
38912;BME280;28444;48.056;14.408;2023-02-10T02:11:33;99371.81;;;-4.15;71.96
38912;BME280;28444;48.056;14.408;2023-02-10T02:17:42;99382.50;;;-4.15;70.97
38912;BME280;28444;48.056;14.408;2023-02-10T02:20:49;99383.25;;;-4.15;71.05
38912;BME280;28444;48.056;14.408;2023-02-10T02:27:44;99384.91;;;-4.04;70.44
38912;BME280;28444;48.056;14.408;2023-02-10T02:30:23;99379.59;;;-4.21;71.38
38912;BME280;28444;48.056;14.408;2023-02-10T02:33:22;99392.78;;;-4.14;71.01
38912;BME280;28444;48.056;14.408;2023-02-10T02:36:08;99395.69;;;-4.08;71.13
38912;BME280;28444;48.056;14.408;2023-02-10T02:38:38;99394.59;;;-4.11;71.50
38912;BME280;28444;48.056;14.408;2023-02-10T02:41:06;99403.13;;;-4.32;71.65
38912;BME280;28444;48.056;14.408;2023-02-10T02:43:33;99407.53;;;-4.25;72.47
38912;BME280;28444;48.056;14.408;2023-02-10T02:49:13;99406.41;;;-4.24;72.76
38912;BME280;28444;48.056;14.408;2023-02-10T02:54:54;99416.41;;;-4.28;72.08
38912;BME280;28444;48.056;14.408;2023-02-10T02:57:41;99408.41;;;-4.28;72.09
38912;BME280;28444;48.056;14.408;2023-02-10T03:00:13;99418.47;;;-4.36;72.29
38912;BME280;28444;48.056;14.408;2023-02-10T03:02:43;99422.75;;;-4.39;72.32
38912;BME280;28444;48.056;14.408;2023-02-10T03:05:18;99420.75;;;-4.34;72.18
38912;BME280;28444;48.056;14.408;2023-02-10T03:07:45;99418.41;;;-4.32;71.84
38912;BME280;28444;48.056;14.408;2023-02-10T03:10:12;99429.94;;;-4.36;72.36
38912;BME280;28444;48.056;14.408;2023-02-10T03:12:39;99435.19;;;-4.32;72.42
38912;BME280;28444;48.056;14.408;2023-02-10T03:15:05;99434.19;;;-4.38;73.02
38912;BME280;28444;48.056;14.408;2023-02-10T03:17:32;99442.56;;;-4.56;73.29
38912;BME280;28444;48.056;14.408;2023-02-10T03:19:59;99447.84;;;-4.52;72.91
38912;BME280;28444;48.056;14.408;2023-02-10T03:22:26;99445.84;;;-4.48;73.33
38912;BME280;28444;48.056;14.408;2023-02-10T03:24:52;99447.91;;;-4.56;73.32
38912;BME280;28444;48.056;14.408;2023-02-10T03:27:19;99452.75;;;-4.51;73.26
38912;BME280;28444;48.056;14.408;2023-02-10T03:29:45;99450.09;;;-4.51;73.49
38912;BME280;28444;48.056;14.408;2023-02-10T03:32:15;99446.00;;;-4.55;73.87
38912;BME280;28444;48.056;14.408;2023-02-10T03:34:42;99451.91;;;-4.64;73.55
38912;BME280;28444;48.056;14.408;2023-02-10T03:37:09;99446.81;;;-4.58;73.46
38912;BME280;28444;48.056;14.408;2023-02-10T03:39:35;99444.16;;;-4.58;73.75
38912;BME280;28444;48.056;14.408;2023-02-10T03:42:02;99434.50;;;-4.52;73.97
38912;BME280;28444;48.056;14.408;2023-02-10T03:44:29;99440.22;;;-4.54;73.17
38912;BME280;28444;48.056;14.408;2023-02-10T03:46:56;99436.88;;;-4.58;73.13
38912;BME280;28444;48.056;14.408;2023-02-10T03:49:22;99439.63;;;-4.62;73.41
38912;BME280;28444;48.056;14.408;2023-02-10T03:51:49;99445.47;;;-4.67;74.04
38912;BME280;28444;48.056;14.408;2023-02-10T03:54:16;99446.56;;;-4.64;73.67
38912;BME280;28444;48.056;14.408;2023-02-10T03:56:42;99445.75;;;-4.61;73.32
38912;BME280;28444;48.056;14.408;2023-02-10T03:59:09;99445.91;;;-4.68;73.96
38912;BME280;28444;48.056;14.408;2023-02-10T04:01:36;99444.72;;;-4.87;74.81
38912;BME280;28444;48.056;14.408;2023-02-10T04:04:02;99456.88;;;-4.82;74.74
38912;BME280;28444;48.056;14.408;2023-02-10T04:06:30;99450.22;;;-4.74;74.52
38912;BME280;28444;48.056;14.408;2023-02-10T04:08:56;99453.63;;;-4.74;73.95
38912;BME280;28444;48.056;14.408;2023-02-10T04:11:23;99456.50;;;-4.65;74.36
38912;BME280;28444;48.056;14.408;2023-02-10T04:13:50;99453.34;;;-4.60;73.46
38912;BME280;28444;48.056;14.408;2023-02-10T04:16:16;99460.09;;;-4.55;74.12
38912;BME280;28444;48.056;14.408;2023-02-10T04:18:43;99457.03;;;-4.53;73.84
38912;BME280;28444;48.056;14.408;2023-02-10T04:21:11;99452.97;;;-4.62;73.83
38912;BME280;28444;48.056;14.408;2023-02-10T04:23:38;99455.13;;;-4.73;74.84
38912;BME280;28444;48.056;14.408;2023-02-10T04:26:05;99453.03;;;-4.81;75.10
38912;BME280;28444;48.056;14.408;2023-02-10T04:28:32;99450.69;;;-4.79;74.79
38912;BME280;28444;48.056;14.408;2023-02-10T04:31:00;99455.56;;;-4.74;74.78
38912;BME280;28444;48.056;14.408;2023-02-10T04:33:27;99454.31;;;-4.70;74.56
38912;BME280;28444;48.056;14.408;2023-02-10T04:35:54;99452.00;;;-4.68;74.32
38912;BME280;28444;48.056;14.408;2023-02-10T04:38:21;99451.84;;;-4.61;74.37
38912;BME280;28444;48.056;14.408;2023-02-10T04:40:48;99456.44;;;-4.61;74.61
38912;BME280;28444;48.056;14.408;2023-02-10T04:43:15;99462.69;;;-4.51;73.86
38912;BME280;28444;48.056;14.408;2023-02-10T04:45:42;99462.97;;;-4.46;73.40
38912;BME280;28444;48.056;14.408;2023-02-10T04:48:09;99455.22;;;-4.40;73.39
38912;BME280;28444;48.056;14.408;2023-02-10T04:50:36;99451.63;;;-4.50;73.26
38912;BME280;28444;48.056;14.408;2023-02-10T04:53:04;99461.06;;;-4.45;73.32
38912;BME280;28444;48.056;14.408;2023-02-10T04:55:33;99462.91;;;-4.42;73.09
38912;BME280;28444;48.056;14.408;2023-02-10T04:58:00;99460.38;;;-4.49;73.95
38912;BME280;28444;48.056;14.408;2023-02-10T05:00:27;99458.69;;;-4.60;74.16
38912;BME280;28444;48.056;14.408;2023-02-10T05:02:54;99459.84;;;-4.61;74.05
38912;BME280;28444;48.056;14.408;2023-02-10T05:05:20;99467.25;;;-4.68;74.59
38912;BME280;28444;48.056;14.408;2023-02-10T05:07:48;99472.84;;;-4.63;74.22
38912;BME280;28444;48.056;14.408;2023-02-10T05:10:15;99480.72;;;-4.55;73.81
38912;BME280;28444;48.056;14.408;2023-02-10T05:12:41;99484.56;;;-4.56;74.13
38912;BME280;28444;48.056;14.408;2023-02-10T05:15:09;99479.81;;;-4.49;73.90
38912;BME280;28444;48.056;14.408;2023-02-10T05:17:35;99486.81;;;-4.55;74.20
38912;BME280;28444;48.056;14.408;2023-02-10T05:20:03;99486.75;;;-4.51;75.06
38912;BME280;28444;48.056;14.408;2023-02-10T05:22:30;99482.00;;;-4.44;74.94
38912;BME280;28444;48.056;14.408;2023-02-10T05:24:57;99476.34;;;-4.46;74.48
38912;BME280;28444;48.056;14.408;2023-02-10T05:27:24;99477.91;;;-4.48;74.20
38912;BME280;28444;48.056;14.408;2023-02-10T05:29:51;99474.06;;;-4.47;75.45
38912;BME280;28444;48.056;14.408;2023-02-10T05:32:18;99488.47;;;-4.61;74.67
38912;BME280;28444;48.056;14.408;2023-02-10T05:34:44;99492.66;;;-4.80;75.60
38912;BME280;28444;48.056;14.408;2023-02-10T05:37:11;99490.53;;;-4.89;76.19
38912;BME280;28444;48.056;14.408;2023-02-10T05:39:38;99499.22;;;-4.85;76.18
38912;BME280;28444;48.056;14.408;2023-02-10T05:42:04;99508.13;;;-4.71;75.43
38912;BME280;28444;48.056;14.408;2023-02-10T05:44:31;99493.41;;;-4.60;75.22
38912;BME280;28444;48.056;14.408;2023-02-10T05:46:58;99510.25;;;-4.63;75.39
38912;BME280;28444;48.056;14.408;2023-02-10T05:49:25;99516.06;;;-4.68;75.32
38912;BME280;28444;48.056;14.408;2023-02-10T05:51:51;99516.94;;;-4.54;75.08
38912;BME280;28444;48.056;14.408;2023-02-10T05:54:19;99518.84;;;-4.55;74.30
38912;BME280;28444;48.056;14.408;2023-02-10T05:56:46;99527.09;;;-4.66;74.97
38912;BME280;28444;48.056;14.408;2023-02-10T05:59:13;99531.97;;;-4.61;74.85
38912;BME280;28444;48.056;14.408;2023-02-10T06:01:41;99526.94;;;-4.58;75.87
38912;BME280;28444;48.056;14.408;2023-02-10T06:04:08;99541.41;;;-4.56;75.70
38912;BME280;28444;48.056;14.408;2023-02-10T06:06:35;99545.63;;;-4.58;76.41
38912;BME280;28444;48.056;14.408;2023-02-10T06:09:02;99536.38;;;-4.54;75.97
38912;BME280;28444;48.056;14.408;2023-02-10T06:11:29;99546.00;;;-4.56;76.49
38912;BME280;28444;48.056;14.408;2023-02-10T06:13:56;99538.06;;;-4.60;76.77
38912;BME280;28444;48.056;14.408;2023-02-10T06:16:23;99543.47;;;-4.64;76.26
38912;BME280;28444;48.056;14.408;2023-02-10T06:18:49;99549.91;;;-4.61;76.45
38912;BME280;28444;48.056;14.408;2023-02-10T06:21:16;99550.84;;;-4.51;76.16
38912;BME280;28444;48.056;14.408;2023-02-10T06:23:43;99556.78;;;-4.44;76.01
38912;BME280;28444;48.056;14.408;2023-02-10T06:26:10;99556.41;;;-4.42;76.17
38912;BME280;28444;48.056;14.408;2023-02-10T06:28:37;99564.59;;;-4.33;77.06
38912;BME280;28444;48.056;14.408;2023-02-10T06:31:03;99563.84;;;-4.33;76.23
38912;BME280;28444;48.056;14.408;2023-02-10T06:33:30;99570.91;;;-4.23;76.13
38912;BME280;28444;48.056;14.408;2023-02-10T06:35:57;99568.97;;;-4.23;76.46
38912;BME280;28444;48.056;14.408;2023-02-10T06:38:24;99574.25;;;-4.19;76.80
38912;BME280;28444;48.056;14.408;2023-02-10T06:40:50;99575.34;;;-4.17;76.60
38912;BME280;28444;48.056;14.408;2023-02-10T06:43:17;99582.41;;;-4.06;76.21
38912;BME280;28444;48.056;14.408;2023-02-10T06:45:43;99599.63;;;-3.91;75.04
38912;BME280;28444;48.056;14.408;2023-02-10T06:48:10;99599.88;;;-3.85;74.13
38912;BME280;28444;48.056;14.408;2023-02-10T06:50:37;99601.19;;;-3.74;74.05
38912;BME280;28444;48.056;14.408;2023-02-10T06:53:04;99607.34;;;-3.77;73.93
38912;BME280;28444;48.056;14.408;2023-02-10T06:55:31;99606.53;;;-3.74;73.99
38912;BME280;28444;48.056;14.408;2023-02-10T06:57:59;99618.31;;;-3.71;74.63
38912;BME280;28444;48.056;14.408;2023-02-10T07:00:27;99617.75;;;-3.63;74.66
38912;BME280;28444;48.056;14.408;2023-02-10T07:02:53;99615.59;;;-3.51;74.32
38912;BME280;28444;48.056;14.408;2023-02-10T07:05:20;99623.09;;;-3.46;74.26
38912;BME280;28444;48.056;14.408;2023-02-10T07:07:47;99622.53;;;-3.37;74.07
38912;BME280;28444;48.056;14.408;2023-02-10T07:10:14;99626.63;;;-3.33;74.23
38912;BME280;28444;48.056;14.408;2023-02-10T07:12:40;99627.97;;;-3.25;73.65
38912;BME280;28444;48.056;14.408;2023-02-10T07:15:08;99634.50;;;-3.26;74.10
38912;BME280;28444;48.056;14.408;2023-02-10T07:17:34;99636.50;;;-3.30;75.20
38912;BME280;28444;48.056;14.408;2023-02-10T07:20:03;99637.41;;;-3.20;75.34
38912;BME280;28444;48.056;14.408;2023-02-10T07:22:30;99647.88;;;-3.09;74.47
38912;BME280;28444;48.056;14.408;2023-02-10T07:24:57;99645.69;;;-3.15;75.01
38912;BME280;28444;48.056;14.408;2023-02-10T07:27:23;99648.69;;;-3.12;74.57
38912;BME280;28444;48.056;14.408;2023-02-10T07:29:50;99655.81;;;-3.22;74.07
38912;BME280;28444;48.056;14.408;2023-02-10T07:32:17;99655.81;;;-3.22;73.93
38912;BME280;28444;48.056;14.408;2023-02-10T07:34:43;99655.31;;;-3.33;74.22
38912;BME280;28444;48.056;14.408;2023-02-10T07:37:10;99664.41;;;-3.31;74.27
38912;BME280;28444;48.056;14.408;2023-02-10T07:39:37;99665.28;;;-3.34;74.73
38912;BME280;28444;48.056;14.408;2023-02-10T07:42:03;99661.34;;;-3.29;74.51
38912;BME280;28444;48.056;14.408;2023-02-10T07:44:30;99658.91;;;-3.24;74.89
38912;BME280;28444;48.056;14.408;2023-02-10T07:46:57;99652.72;;;-3.21;74.65
38912;BME280;28444;48.056;14.408;2023-02-10T07:49:23;99663.34;;;-3.17;74.86
38912;BME280;28444;48.056;14.408;2023-02-10T07:51:50;99665.53;;;-3.12;74.90
38912;BME280;28444;48.056;14.408;2023-02-10T07:54:17;99661.50;;;-3.04;74.41
38912;BME280;28444;48.056;14.408;2023-02-10T07:56:44;99661.84;;;-3.02;74.19
38912;BME280;28444;48.056;14.408;2023-02-10T07:59:10;99662.00;;;-2.93;74.27
38912;BME280;28444;48.056;14.408;2023-02-10T08:01:37;99664.25;;;-2.91;74.64
38912;BME280;28444;48.056;14.408;2023-02-10T08:04:09;99661.94;;;-2.89;73.90
38912;BME280;28444;48.056;14.408;2023-02-10T08:06:36;99669.97;;;-2.89;74.79
38912;BME280;28444;48.056;14.408;2023-02-10T08:09:03;99671.63;;;-2.79;74.79
38912;BME280;28444;48.056;14.408;2023-02-10T08:11:30;99673.28;;;-2.69;74.08
38912;BME280;28444;48.056;14.408;2023-02-10T08:14:00;99682.66;;;-2.60;73.87
38912;BME280;28444;48.056;14.408;2023-02-10T08:16:27;99682.78;;;-2.51;73.99
38912;BME280;28444;48.056;14.408;2023-02-10T08:18:53;99681.63;;;-2.50;74.17
38912;BME280;28444;48.056;14.408;2023-02-10T08:21:20;99682.28;;;-2.46;73.67
38912;BME280;28444;48.056;14.408;2023-02-10T08:23:47;99689.91;;;-2.45;74.22
38912;BME280;28444;48.056;14.408;2023-02-10T08:26:15;99692.91;;;-2.43;73.96
38912;BME280;28444;48.056;14.408;2023-02-10T08:28:41;99697.53;;;-2.43;73.98
38912;BME280;28444;48.056;14.408;2023-02-10T08:31:08;99696.84;;;-2.47;74.39
38912;BME280;28444;48.056;14.408;2023-02-10T08:33:37;99698.38;;;-2.46;75.28
38912;BME280;28444;48.056;14.408;2023-02-10T08:36:14;99694.22;;;-2.34;74.88
38912;BME280;28444;48.056;14.408;2023-02-10T08:38:41;99683.22;;;-2.24;74.70
38912;BME280;28444;48.056;14.408;2023-02-10T08:41:08;99684.31;;;-2.21;74.82
38912;BME280;28444;48.056;14.408;2023-02-10T08:43:35;99686.47;;;-2.16;74.62
38912;BME280;28444;48.056;14.408;2023-02-10T08:46:02;99686.81;;;-2.14;74.57
38912;BME280;28444;48.056;14.408;2023-02-10T08:48:30;99691.31;;;-2.11;74.55
38912;BME280;28444;48.056;14.408;2023-02-10T08:50:57;99685.34;;;-2.02;74.28
38912;BME280;28444;48.056;14.408;2023-02-10T08:53:24;99695.22;;;-1.99;74.03
38912;BME280;28444;48.056;14.408;2023-02-10T08:55:58;99694.50;;;-1.87;73.70
38912;BME280;28444;48.056;14.408;2023-02-10T08:58:26;99707.38;;;-1.82;73.48
38912;BME280;28444;48.056;14.408;2023-02-10T09:00:53;99700.09;;;-1.81;73.23
38912;BME280;28444;48.056;14.408;2023-02-10T09:03:20;99712.31;;;-1.80;73.49
38912;BME280;28444;48.056;14.408;2023-02-10T09:05:47;99716.09;;;-1.78;73.68
38912;BME280;28444;48.056;14.408;2023-02-10T09:08:17;99714.91;;;-1.77;73.36
38912;BME280;28444;48.056;14.408;2023-02-10T09:10:45;99716.94;;;-1.68;73.40
38912;BME280;28444;48.056;14.408;2023-02-10T09:13:12;99721.16;;;-1.54;73.53
38912;BME280;28444;48.056;14.408;2023-02-10T09:15:41;99731.84;;;-1.38;72.65
38912;BME280;28444;48.056;14.408;2023-02-10T09:18:08;99721.59;;;-1.43;72.95
38912;BME280;28444;48.056;14.408;2023-02-10T09:20:35;99726.88;;;-1.39;72.70
38912;BME280;28444;48.056;14.408;2023-02-10T09:23:02;99730.19;;;-1.35;72.97
38912;BME280;28444;48.056;14.408;2023-02-10T09:25:29;99730.53;;;-1.33;73.12
38912;BME280;28444;48.056;14.408;2023-02-10T09:27:55;99729.03;;;-1.22;73.39
38912;BME280;28444;48.056;14.408;2023-02-10T09:30:25;99719.16;;;-1.25;73.54
38912;BME280;28444;48.056;14.408;2023-02-10T09:32:51;99726.44;;;-1.25;73.58
38912;BME280;28444;48.056;14.408;2023-02-10T09:35:18;99713.03;;;-1.12;73.83
38912;BME280;28444;48.056;14.408;2023-02-10T09:37:46;99717.31;;;-1.02;73.38
38912;BME280;28444;48.056;14.408;2023-02-10T09:44:22;99700.31;;;-0.86;72.54
38912;BME280;28444;48.056;14.408;2023-02-10T09:49:54;99704.81;;;-0.36;71.88
38912;BME280;28444;48.056;14.408;2023-02-10T09:55:03;99698.59;;;-0.45;72.11
38912;BME280;28444;48.056;14.408;2023-02-10T09:57:39;99695.28;;;-0.50;73.14
38912;BME280;28444;48.056;14.408;2023-02-10T10:02:52;99703.78;;;-0.16;70.01
38912;BME280;28444;48.056;14.408;2023-02-10T10:08:27;99707.91;;;-0.03;70.72
38912;BME280;28444;48.056;14.408;2023-02-10T10:11:02;99717.28;;;-0.07;71.18
38912;BME280;28444;48.056;14.408;2023-02-10T10:13:31;99709.53;;;-0.05;70.51
38912;BME280;28444;48.056;14.408;2023-02-10T10:16:21;99714.59;;;0.15;72.17
38912;BME280;28444;48.056;14.408;2023-02-10T10:19:51;99718.59;;;0.10;70.75
38912;BME280;28444;48.056;14.408;2023-02-10T10:29:19;99708.91;;;0.13;71.27
38912;BME280;28444;48.056;14.408;2023-02-10T10:31:37;99715.72;;;0.27;69.82
38912;BME280;28444;48.056;14.408;2023-02-10T10:34:15;99715.50;;;0.43;69.43
38912;BME280;28444;48.056;14.408;2023-02-10T10:36:51;99715.09;;;0.54;68.77
38912;BME280;28444;48.056;14.408;2023-02-10T10:39:30;99710.84;;;0.65;68.44
38912;BME280;28444;48.056;14.408;2023-02-10T10:42:02;99713.94;;;0.64;67.61
38912;BME280;28444;48.056;14.408;2023-02-10T10:44:32;99701.81;;;0.59;69.05
38912;BME280;28444;48.056;14.408;2023-02-10T10:47:05;99703.50;;;0.66;67.46
38912;BME280;28444;48.056;14.408;2023-02-10T10:49:37;99696.03;;;0.70;66.38
38912;BME280;28444;48.056;14.408;2023-02-10T10:52:26;99696.78;;;0.70;66.99
38912;BME280;28444;48.056;14.408;2023-02-10T10:54:58;99685.47;;;0.85;65.72
38912;BME280;28444;48.056;14.408;2023-02-10T10:57:25;99680.25;;;1.00;65.04
38912;BME280;28444;48.056;14.408;2023-02-10T10:59:57;99688.63;;;1.02;64.61
38912;BME280;28444;48.056;14.408;2023-02-10T11:02:24;99677.09;;;0.92;66.08
38912;BME280;28444;48.056;14.408;2023-02-10T11:05:05;99680.06;;;0.94;64.08
38912;BME280;28444;48.056;14.408;2023-02-10T11:07:33;99673.03;;;0.87;64.69
38912;BME280;28444;48.056;14.408;2023-02-10T11:09:59;99664.09;;;1.00;64.45
38912;BME280;28444;48.056;14.408;2023-02-10T11:12:32;99665.00;;;1.15;65.14
38912;BME280;28444;48.056;14.408;2023-02-10T11:15:01;99661.28;;;1.22;64.21
38912;BME280;28444;48.056;14.408;2023-02-10T11:17:39;99662.78;;;1.32;65.16
38912;BME280;28444;48.056;14.408;2023-02-10T11:20:22;99669.06;;;1.29;64.77
38912;BME280;28444;48.056;14.408;2023-02-10T11:22:58;99653.66;;;1.29;65.66
38912;BME280;28444;48.056;14.408;2023-02-10T11:25:35;99643.03;;;1.35;65.50
38912;BME280;28444;48.056;14.408;2023-02-10T11:28:04;99639.41;;;1.38;65.04
38912;BME280;28444;48.056;14.408;2023-02-10T11:30:34;99644.94;;;1.34;66.91
38912;BME280;28444;48.056;14.408;2023-02-10T11:33:03;99641.06;;;1.35;67.42
38912;BME280;28444;48.056;14.408;2023-02-10T11:35:31;99639.88;;;1.27;68.03
38912;BME280;28444;48.056;14.408;2023-02-10T11:38:06;99630.28;;;1.17;68.29
38912;BME280;28444;48.056;14.408;2023-02-10T11:41:09;99620.84;;;1.22;68.31
38912;BME280;28444;48.056;14.408;2023-02-10T11:43:45;99602.13;;;1.36;67.71
38912;BME280;28444;48.056;14.408;2023-02-10T11:46:26;99609.44;;;1.45;67.87
38912;BME280;28444;48.056;14.408;2023-02-10T11:49:00;99598.84;;;1.32;67.72
38912;BME280;28444;48.056;14.408;2023-02-10T11:51:28;99604.53;;;1.25;68.23
38912;BME280;28444;48.056;14.408;2023-02-10T11:53:58;99598.97;;;1.19;67.14
38912;BME280;28444;48.056;14.408;2023-02-10T11:56:56;99594.19;;;1.33;67.21
38912;BME280;28444;48.056;14.408;2023-02-10T12:03:25;99597.16;;;1.44;66.71
38912;BME280;28444;48.056;14.408;2023-02-10T12:09:27;99592.69;;;1.41;68.02
38912;BME280;28444;48.056;14.408;2023-02-10T12:12:36;99589.69;;;1.48;67.82
38912;BME280;28444;48.056;14.408;2023-02-10T12:15:34;99590.56;;;1.45;67.98
38912;BME280;28444;48.056;14.408;2023-02-10T12:18:17;99581.59;;;1.39;67.90
38912;BME280;28444;48.056;14.408;2023-02-10T12:21:11;99588.34;;;1.53;67.83
38912;BME280;28444;48.056;14.408;2023-02-10T12:24:29;99581.75;;;1.54;67.92
38912;BME280;28444;48.056;14.408;2023-02-10T12:26:54;99576.94;;;1.58;67.19
38912;BME280;28444;48.056;14.408;2023-02-10T12:29:47;99574.09;;;1.61;67.04
38912;BME280;28444;48.056;14.408;2023-02-10T12:33:11;99580.06;;;1.65;66.98
38912;BME280;28444;48.056;14.408;2023-02-10T12:39:18;99567.47;;;1.72;67.47
38912;BME280;28444;48.056;14.408;2023-02-10T12:45:12;99568.81;;;1.76;66.16
38912;BME280;28444;48.056;14.408;2023-02-10T12:53:48;99547.81;;;1.80;66.88
38912;BME280;28444;48.056;14.408;2023-02-10T12:59:16;99545.69;;;1.84;65.31
38912;BME280;28444;48.056;14.408;2023-02-10T13:02:00;99548.53;;;1.90;65.47
38912;BME280;28444;48.056;14.408;2023-02-10T13:04:51;99549.69;;;1.98;66.26
38912;BME280;28444;48.056;14.408;2023-02-10T13:07:37;99549.28;;;1.81;66.89
38912;BME280;28444;48.056;14.408;2023-02-10T13:10:29;99553.63;;;1.88;66.31
38912;BME280;28444;48.056;14.408;2023-02-10T13:13:03;99534.75;;;1.88;66.09
38912;BME280;28444;48.056;14.408;2023-02-10T13:15:39;99536.78;;;2.02;65.51
38912;BME280;28444;48.056;14.408;2023-02-10T13:18:17;99530.16;;;2.12;66.00
38912;BME280;28444;48.056;14.408;2023-02-10T13:20:58;99545.19;;;2.04;66.96
38912;BME280;28444;48.056;14.408;2023-02-10T13:23:53;99538.41;;;2.09;65.66
38912;BME280;28444;48.056;14.408;2023-02-10T13:26:48;99538.25;;;2.12;64.53
38912;BME280;28444;48.056;14.408;2023-02-10T13:29:40;99530.47;;;2.14;63.94
38912;BME280;28444;48.056;14.408;2023-02-10T13:32:42;99532.84;;;2.12;64.34
38912;BME280;28444;48.056;14.408;2023-02-10T13:35:17;99528.50;;;2.15;64.78
38912;BME280;28444;48.056;14.408;2023-02-10T13:37:49;99543.00;;;2.17;65.49
38912;BME280;28444;48.056;14.408;2023-02-10T13:40:25;99544.97;;;2.17;65.21
38912;BME280;28444;48.056;14.408;2023-02-10T13:43:01;99556.56;;;2.08;65.04
38912;BME280;28444;48.056;14.408;2023-02-10T13:45:33;99552.53;;;2.04;66.32
38912;BME280;28444;48.056;14.408;2023-02-10T13:48:05;99550.88;;;2.06;65.98
38912;BME280;28444;48.056;14.408;2023-02-10T13:50:50;99548.22;;;1.97;66.31
38912;BME280;28444;48.056;14.408;2023-02-10T13:53:48;99551.19;;;1.99;66.57
38912;BME280;28444;48.056;14.408;2023-02-10T13:56:29;99551.94;;;2.00;66.57
38912;BME280;28444;48.056;14.408;2023-02-10T13:59:27;99556.69;;;2.14;65.77
38912;BME280;28444;48.056;14.408;2023-02-10T14:02:11;99556.84;;;2.10;65.92
38912;BME280;28444;48.056;14.408;2023-02-10T14:04:44;99564.81;;;2.05;66.19
38912;BME280;28444;48.056;14.408;2023-02-10T14:07:32;99555.09;;;1.98;65.95
38912;BME280;28444;48.056;14.408;2023-02-10T14:10:26;99550.53;;;2.13;66.30
38912;BME280;28444;48.056;14.408;2023-02-10T14:13:01;99556.19;;;2.25;65.36